sensor_id;sensor_type;location;lat;lon;timestamp;temperature;humidity
21508;DHT22;10915;54.352;9.074;2023-02-10T00:03:43;5.50;99.90
21508;DHT22;10915;54.352;9.074;2023-02-10T00:06:10;5.50;99.90
21508;DHT22;10915;54.352;9.074;2023-02-10T00:08:36;5.50;99.90
21508;DHT22;10915;54.352;9.074;2023-02-10T00:11:05;5.50;99.90
21508;DHT22;10915;54.352;9.074;2023-02-10T00:13:32;5.50;99.90
21508;DHT22;10915;54.352;9.074;2023-02-10T00:15:59;5.50;99.90
21508;DHT22;10915;54.352;9.074;2023-02-10T00:18:25;5.50;99.90
21508;DHT22;10915;54.352;9.074;2023-02-10T00:20:52;5.50;99.90
21508;DHT22;10915;54.352;9.074;2023-02-10T00:23:18;5.50;99.90
21508;DHT22;10915;54.352;9.074;2023-02-10T00:25:44;5.50;99.90
21508;DHT22;10915;54.352;9.074;2023-02-10T00:28:10;5.50;99.90
21508;DHT22;10915;54.352;9.074;2023-02-10T00:30:38;5.40;99.90
21508;DHT22;10915;54.352;9.074;2023-02-10T00:33:04;5.40;99.90
21508;DHT22;10915;54.352;9.074;2023-02-10T00:35:30;5.40;99.90
21508;DHT22;10915;54.352;9.074;2023-02-10T00:37:56;5.40;99.90
21508;DHT22;10915;54.352;9.074;2023-02-10T00:40:22;5.40;99.90
21508;DHT22;10915;54.352;9.074;2023-02-10T00:42:48;5.40;99.90
21508;DHT22;10915;54.352;9.074;2023-02-10T00:45:14;5.40;99.90
21508;DHT22;10915;54.352;9.074;2023-02-10T00:47:40;5.40;99.90
21508;DHT22;10915;54.352;9.074;2023-02-10T00:50:06;5.40;99.90
21508;DHT22;10915;54.352;9.074;2023-02-10T00:52:32;5.40;99.90
21508;DHT22;10915;54.352;9.074;2023-02-10T00:54:57;5.40;99.90
21508;DHT22;10915;54.352;9.074;2023-02-10T00:57:23;5.40;99.90
21508;DHT22;10915;54.352;9.074;2023-02-10T00:59:49;5.40;99.90
21508;DHT22;10915;54.352;9.074;2023-02-10T01:02:14;5.40;99.90
21508;DHT22;10915;54.352;9.074;2023-02-10T01:04:41;5.40;99.90
21508;DHT22;10915;54.352;9.074;2023-02-10T01:07:07;5.40;99.90
21508;DHT22;10915;54.352;9.074;2023-02-10T01:09:33;5.40;99.90
21508;DHT22;10915;54.352;9.074;2023-02-10T01:11:58;5.40;99.90
21508;DHT22;10915;54.352;9.074;2023-02-10T01:14:30;5.40;99.90
21508;DHT22;10915;54.352;9.074;2023-02-10T01:16:56;5.40;99.90
21508;DHT22;10915;54.352;9.074;2023-02-10T01:19:22;5.50;99.90
21508;DHT22;10915;54.352;9.074;2023-02-10T01:21:48;5.40;99.90
21508;DHT22;10915;54.352;9.074;2023-02-10T01:24:18;5.40;99.90
21508;DHT22;10915;54.352;9.074;2023-02-10T01:26:44;5.40;99.90
21508;DHT22;10915;54.352;9.074;2023-02-10T01:29:09;5.40;99.90
21508;DHT22;10915;54.352;9.074;2023-02-10T01:31:35;5.50;99.90
21508;DHT22;10915;54.352;9.074;2023-02-10T01:34:01;5.50;99.90
21508;DHT22;10915;54.352;9.074;2023-02-10T01:36:26;5.50;99.90
21508;DHT22;10915;54.352;9.074;2023-02-10T01:38:52;5.50;99.90
21508;DHT22;10915;54.352;9.074;2023-02-10T01:41:20;5.50;99.90
21508;DHT22;10915;54.352;9.074;2023-02-10T01:45:01;5.50;99.90
21508;DHT22;10915;54.352;9.074;2023-02-10T01:46:52;5.60;99.90
21508;DHT22;10915;54.352;9.074;2023-02-10T01:49:21;5.50;99.90
21508;DHT22;10915;54.352;9.074;2023-02-10T01:51:56;5.60;99.90
21508;DHT22;10915;54.352;9.074;2023-02-10T01:54:30;5.50;99.90
21508;DHT22;10915;54.352;9.074;2023-02-10T01:56:57;5.50;99.90
21508;DHT22;10915;54.352;9.074;2023-02-10T01:59:26;5.50;99.90
21508;DHT22;10915;54.352;9.074;2023-02-10T02:01:53;5.50;99.90
21508;DHT22;10915;54.352;9.074;2023-02-10T02:04:19;5.60;99.90
21508;DHT22;10915;54.352;9.074;2023-02-10T02:06:45;5.60;99.90
21508;DHT22;10915;54.352;9.074;2023-02-10T02:09:11;5.60;99.90
21508;DHT22;10915;54.352;9.074;2023-02-10T02:14:42;5.60;99.90
21508;DHT22;10915;54.352;9.074;2023-02-10T02:20:25;5.50;99.90
21508;DHT22;10915;54.352;9.074;2023-02-10T02:34:25;5.40;99.90
21508;DHT22;10915;54.352;9.074;2023-02-10T02:37:02;5.50;99.90
21508;DHT22;10915;54.352;9.074;2023-02-10T02:39:29;5.40;99.90
21508;DHT22;10915;54.352;9.074;2023-02-10T02:44:35;5.40;99.90
21508;DHT22;10915;54.352;9.074;2023-02-10T02:47:13;5.40;99.90
21508;DHT22;10915;54.352;9.074;2023-02-10T02:58:50;5.30;99.90
21508;DHT22;10915;54.352;9.074;2023-02-10T03:01:38;5.30;99.90
21508;DHT22;10915;54.352;9.074;2023-02-10T03:04:07;5.20;99.90
21508;DHT22;10915;54.352;9.074;2023-02-10T03:06:34;5.20;99.90
21508;DHT22;10915;54.352;9.074;2023-02-10T03:08:59;5.20;99.90
21508;DHT22;10915;54.352;9.074;2023-02-10T03:11:25;5.20;99.90
21508;DHT22;10915;54.352;9.074;2023-02-10T03:13:51;5.10;99.90
21508;DHT22;10915;54.352;9.074;2023-02-10T03:16:16;5.10;99.90
21508;DHT22;10915;54.352;9.074;2023-02-10T03:18:42;5.10;99.90
21508;DHT22;10915;54.352;9.074;2023-02-10T03:21:08;5.10;99.90
21508;DHT22;10915;54.352;9.074;2023-02-10T03:23:33;5.10;99.90
21508;DHT22;10915;54.352;9.074;2023-02-10T03:26:00;5.10;99.90
21508;DHT22;10915;54.352;9.074;2023-02-10T03:28:26;5.10;99.90
21508;DHT22;10915;54.352;9.074;2023-02-10T03:30:52;5.20;99.90
21508;DHT22;10915;54.352;9.074;2023-02-10T03:33:19;5.20;99.90
21508;DHT22;10915;54.352;9.074;2023-02-10T03:35:45;5.20;99.90
21508;DHT22;10915;54.352;9.074;2023-02-10T03:38:11;5.20;99.90
21508;DHT22;10915;54.352;9.074;2023-02-10T03:40:37;5.30;99.90
21508;DHT22;10915;54.352;9.074;2023-02-10T03:43:03;5.30;99.90
21508;DHT22;10915;54.352;9.074;2023-02-10T03:45:29;5.40;99.90
21508;DHT22;10915;54.352;9.074;2023-02-10T03:47:55;5.40;99.90
21508;DHT22;10915;54.352;9.074;2023-02-10T03:50:21;5.40;99.90
21508;DHT22;10915;54.352;9.074;2023-02-10T03:52:49;5.40;99.90
21508;DHT22;10915;54.352;9.074;2023-02-10T03:55:15;5.50;99.90
21508;DHT22;10915;54.352;9.074;2023-02-10T03:57:43;5.50;99.90
21508;DHT22;10915;54.352;9.074;2023-02-10T04:00:10;5.50;99.90
21508;DHT22;10915;54.352;9.074;2023-02-10T04:02:35;5.50;99.90
21508;DHT22;10915;54.352;9.074;2023-02-10T04:05:01;5.50;99.90
21508;DHT22;10915;54.352;9.074;2023-02-10T04:07:27;5.50;99.90
21508;DHT22;10915;54.352;9.074;2023-02-10T04:09:52;5.50;99.90
21508;DHT22;10915;54.352;9.074;2023-02-10T04:12:18;5.60;99.90
21508;DHT22;10915;54.352;9.074;2023-02-10T04:14:44;5.50;99.90
21508;DHT22;10915;54.352;9.074;2023-02-10T04:17:09;5.50;99.90
21508;DHT22;10915;54.352;9.074;2023-02-10T04:19:35;5.60;99.90
21508;DHT22;10915;54.352;9.074;2023-02-10T04:22:00;5.50;99.90
21508;DHT22;10915;54.352;9.074;2023-02-10T04:24:26;5.50;99.90
21508;DHT22;10915;54.352;9.074;2023-02-10T04:26:52;5.50;99.90
21508;DHT22;10915;54.352;9.074;2023-02-10T04:29:18;5.50;99.90
21508;DHT22;10915;54.352;9.074;2023-02-10T04:31:43;5.50;99.90
21508;DHT22;10915;54.352;9.074;2023-02-10T04:34:09;5.50;99.90
21508;DHT22;10915;54.352;9.074;2023-02-10T04:36:34;5.50;99.90
21508;DHT22;10915;54.352;9.074;2023-02-10T04:39:00;5.60;99.90
21508;DHT22;10915;54.352;9.074;2023-02-10T04:41:26;5.60;99.90
21508;DHT22;10915;54.352;9.074;2023-02-10T04:43:52;5.60;99.90
21508;DHT22;10915;54.352;9.074;2023-02-10T04:46:17;5.60;99.90
21508;DHT22;10915;54.352;9.074;2023-02-10T04:48:43;5.60;99.90
21508;DHT22;10915;54.352;9.074;2023-02-10T04:51:10;5.70;99.90
21508;DHT22;10915;54.352;9.074;2023-02-10T04:53:37;5.70;99.90
21508;DHT22;10915;54.352;9.074;2023-02-10T04:56:03;5.80;99.90
21508;DHT22;10915;54.352;9.074;2023-02-10T04:58:30;5.80;99.90
21508;DHT22;10915;54.352;9.074;2023-02-10T05:00:56;5.80;99.90
21508;DHT22;10915;54.352;9.074;2023-02-10T05:03:22;5.90;99.90
21508;DHT22;10915;54.352;9.074;2023-02-10T05:05:48;5.80;99.90
21508;DHT22;10915;54.352;9.074;2023-02-10T05:08:14;5.80;99.90
21508;DHT22;10915;54.352;9.074;2023-02-10T05:10:40;5.80;99.90
21508;DHT22;10915;54.352;9.074;2023-02-10T05:13:05;5.80;99.90
21508;DHT22;10915;54.352;9.074;2023-02-10T05:15:31;5.80;99.90
21508;DHT22;10915;54.352;9.074;2023-02-10T05:17:57;5.80;99.90
21508;DHT22;10915;54.352;9.074;2023-02-10T05:20:22;5.80;99.90
21508;DHT22;10915;54.352;9.074;2023-02-10T05:22:48;5.90;99.90
21508;DHT22;10915;54.352;9.074;2023-02-10T05:25:13;5.90;99.90
21508;DHT22;10915;54.352;9.074;2023-02-10T05:27:40;5.90;99.90
21508;DHT22;10915;54.352;9.074;2023-02-10T05:30:06;5.90;99.90
21508;DHT22;10915;54.352;9.074;2023-02-10T05:32:52;5.90;99.90
21508;DHT22;10915;54.352;9.074;2023-02-10T05:35:18;5.90;99.90
21508;DHT22;10915;54.352;9.074;2023-02-10T05:37:43;5.90;99.90
21508;DHT22;10915;54.352;9.074;2023-02-10T05:40:10;6.00;99.90
21508;DHT22;10915;54.352;9.074;2023-02-10T05:42:36;5.90;99.90
21508;DHT22;10915;54.352;9.074;2023-02-10T05:45:01;5.90;99.90
21508;DHT22;10915;54.352;9.074;2023-02-10T05:47:27;5.90;99.90
21508;DHT22;10915;54.352;9.074;2023-02-10T05:49:52;5.90;99.90
21508;DHT22;10915;54.352;9.074;2023-02-10T05:52:18;5.90;99.90
21508;DHT22;10915;54.352;9.074;2023-02-10T05:54:43;5.90;99.90
21508;DHT22;10915;54.352;9.074;2023-02-10T05:57:09;5.90;99.90
21508;DHT22;10915;54.352;9.074;2023-02-10T05:59:35;5.90;99.90
21508;DHT22;10915;54.352;9.074;2023-02-10T06:02:00;5.90;99.90
21508;DHT22;10915;54.352;9.074;2023-02-10T06:04:26;6.00;99.90
21508;DHT22;10915;54.352;9.074;2023-02-10T06:06:52;6.00;99.90
21508;DHT22;10915;54.352;9.074;2023-02-10T06:09:17;5.90;99.90
21508;DHT22;10915;54.352;9.074;2023-02-10T06:11:43;5.90;99.90
21508;DHT22;10915;54.352;9.074;2023-02-10T06:14:08;5.90;99.90
21508;DHT22;10915;54.352;9.074;2023-02-10T06:16:34;5.90;99.90
21508;DHT22;10915;54.352;9.074;2023-02-10T06:19:00;5.90;99.90
21508;DHT22;10915;54.352;9.074;2023-02-10T06:21:25;5.90;99.90
21508;DHT22;10915;54.352;9.074;2023-02-10T06:23:51;5.90;99.90
21508;DHT22;10915;54.352;9.074;2023-02-10T06:26:17;5.90;99.90
21508;DHT22;10915;54.352;9.074;2023-02-10T06:28:43;5.90;99.90
21508;DHT22;10915;54.352;9.074;2023-02-10T06:31:09;5.90;99.90
21508;DHT22;10915;54.352;9.074;2023-02-10T06:33:35;5.90;99.90
21508;DHT22;10915;54.352;9.074;2023-02-10T06:36:02;5.80;99.90
21508;DHT22;10915;54.352;9.074;2023-02-10T06:38:31;5.80;99.90
21508;DHT22;10915;54.352;9.074;2023-02-10T06:40:57;5.80;99.90
21508;DHT22;10915;54.352;9.074;2023-02-10T06:43:23;5.80;99.90
21508;DHT22;10915;54.352;9.074;2023-02-10T06:45:48;5.80;99.90
21508;DHT22;10915;54.352;9.074;2023-02-10T06:48:14;5.80;99.90
21508;DHT22;10915;54.352;9.074;2023-02-10T06:50:39;5.80;99.90
21508;DHT22;10915;54.352;9.074;2023-02-10T06:53:05;5.70;99.90
21508;DHT22;10915;54.352;9.074;2023-02-10T06:55:31;5.70;99.90
21508;DHT22;10915;54.352;9.074;2023-02-10T06:58:04;5.70;99.90
21508;DHT22;10915;54.352;9.074;2023-02-10T07:00:30;5.70;99.90
21508;DHT22;10915;54.352;9.074;2023-02-10T07:02:59;5.60;99.90
21508;DHT22;10915;54.352;9.074;2023-02-10T07:05:24;5.60;99.90
21508;DHT22;10915;54.352;9.074;2023-02-10T07:07:50;5.60;99.90
21508;DHT22;10915;54.352;9.074;2023-02-10T07:10:17;5.60;99.90
21508;DHT22;10915;54.352;9.074;2023-02-10T07:12:43;5.60;99.90
21508;DHT22;10915;54.352;9.074;2023-02-10T07:18:34;5.50;99.90
21508;DHT22;10915;54.352;9.074;2023-02-10T07:21:03;5.50;99.90
21508;DHT22;10915;54.352;9.074;2023-02-10T07:23:28;5.50;99.90
21508;DHT22;10915;54.352;9.074;2023-02-10T07:25:54;5.50;99.90
21508;DHT22;10915;54.352;9.074;2023-02-10T07:28:20;5.50;99.90
21508;DHT22;10915;54.352;9.074;2023-02-10T07:30:45;5.50;99.90
21508;DHT22;10915;54.352;9.074;2023-02-10T07:33:11;5.50;99.90
21508;DHT22;10915;54.352;9.074;2023-02-10T07:35:37;5.50;99.90
21508;DHT22;10915;54.352;9.074;2023-02-10T07:38:02;5.50;99.90
21508;DHT22;10915;54.352;9.074;2023-02-10T07:40:28;5.50;99.90
21508;DHT22;10915;54.352;9.074;2023-02-10T07:42:55;5.50;99.90
21508;DHT22;10915;54.352;9.074;2023-02-10T07:45:21;5.50;99.90
21508;DHT22;10915;54.352;9.074;2023-02-10T07:47:47;5.50;99.90
21508;DHT22;10915;54.352;9.074;2023-02-10T07:50:13;5.50;99.90
21508;DHT22;10915;54.352;9.074;2023-02-10T07:52:39;5.50;99.90
21508;DHT22;10915;54.352;9.074;2023-02-10T07:55:07;5.50;99.90
21508;DHT22;10915;54.352;9.074;2023-02-10T07:57:33;5.50;99.90
21508;DHT22;10915;54.352;9.074;2023-02-10T07:59:58;5.50;99.90
21508;DHT22;10915;54.352;9.074;2023-02-10T08:02:24;5.50;99.90
21508;DHT22;10915;54.352;9.074;2023-02-10T08:04:50;5.50;99.90
21508;DHT22;10915;54.352;9.074;2023-02-10T08:07:19;5.50;99.90
21508;DHT22;10915;54.352;9.074;2023-02-10T08:09:45;5.50;99.90
21508;DHT22;10915;54.352;9.074;2023-02-10T08:12:11;5.50;99.90
21508;DHT22;10915;54.352;9.074;2023-02-10T08:14:36;5.50;99.90
21508;DHT22;10915;54.352;9.074;2023-02-10T08:17:02;5.50;99.90
21508;DHT22;10915;54.352;9.074;2023-02-10T08:19:28;5.50;99.90
21508;DHT22;10915;54.352;9.074;2023-02-10T08:21:53;5.50;99.90
21508;DHT22;10915;54.352;9.074;2023-02-10T08:24:19;5.60;99.90
21508;DHT22;10915;54.352;9.074;2023-02-10T08:26:45;5.60;99.90
21508;DHT22;10915;54.352;9.074;2023-02-10T08:29:11;5.70;99.90
21508;DHT22;10915;54.352;9.074;2023-02-10T08:31:38;5.60;99.90
21508;DHT22;10915;54.352;9.074;2023-02-10T08:34:03;5.70;99.90
21508;DHT22;10915;54.352;9.074;2023-02-10T08:36:29;5.80;99.90
21508;DHT22;10915;54.352;9.074;2023-02-10T08:38:56;5.80;99.90
21508;DHT22;10915;54.352;9.074;2023-02-10T08:41:22;5.80;99.90
21508;DHT22;10915;54.352;9.074;2023-02-10T08:43:48;5.90;99.90
21508;DHT22;10915;54.352;9.074;2023-02-10T08:46:14;5.90;99.90
21508;DHT22;10915;54.352;9.074;2023-02-10T08:48:40;5.90;99.90
21508;DHT22;10915;54.352;9.074;2023-02-10T08:51:08;5.90;99.90
21508;DHT22;10915;54.352;9.074;2023-02-10T08:53:34;5.90;99.90
21508;DHT22;10915;54.352;9.074;2023-02-10T08:56:02;6.00;99.90
21508;DHT22;10915;54.352;9.074;2023-02-10T08:58:29;6.00;99.90
21508;DHT22;10915;54.352;9.074;2023-02-10T09:00:54;6.00;99.90
21508;DHT22;10915;54.352;9.074;2023-02-10T09:03:21;6.10;99.90
21508;DHT22;10915;54.352;9.074;2023-02-10T09:05:47;6.00;99.90
21508;DHT22;10915;54.352;9.074;2023-02-10T09:08:14;6.00;99.90
21508;DHT22;10915;54.352;9.074;2023-02-10T09:10:41;5.90;99.90
21508;DHT22;10915;54.352;9.074;2023-02-10T09:13:07;5.90;99.90
21508;DHT22;10915;54.352;9.074;2023-02-10T09:15:39;6.00;99.90
21508;DHT22;10915;54.352;9.074;2023-02-10T09:18:06;6.00;99.90
21508;DHT22;10915;54.352;9.074;2023-02-10T09:20:32;6.10;99.90
21508;DHT22;10915;54.352;9.074;2023-02-10T09:22:58;6.10;99.90
21508;DHT22;10915;54.352;9.074;2023-02-10T09:25:24;6.20;99.90
21508;DHT22;10915;54.352;9.074;2023-02-10T09:27:51;6.30;99.90
21508;DHT22;10915;54.352;9.074;2023-02-10T09:30:20;6.20;99.90
21508;DHT22;10915;54.352;9.074;2023-02-10T09:32:46;6.30;99.90
21508;DHT22;10915;54.352;9.074;2023-02-10T09:35:11;6.30;99.90
21508;DHT22;10915;54.352;9.074;2023-02-10T09:37:37;6.30;99.90
21508;DHT22;10915;54.352;9.074;2023-02-10T09:40:03;6.30;99.90
21508;DHT22;10915;54.352;9.074;2023-02-10T09:45:24;6.30;99.90
21508;DHT22;10915;54.352;9.074;2023-02-10T09:53:37;6.30;99.90
21508;DHT22;10915;54.352;9.074;2023-02-10T09:56:05;6.40;99.90
21508;DHT22;10915;54.352;9.074;2023-02-10T09:58:40;6.50;99.90
21508;DHT22;10915;54.352;9.074;2023-02-10T10:01:15;6.50;99.90
21508;DHT22;10915;54.352;9.074;2023-02-10T10:03:48;6.60;99.90
21508;DHT22;10915;54.352;9.074;2023-02-10T10:06:30;6.50;99.90
21508;DHT22;10915;54.352;9.074;2023-02-10T10:14:26;6.70;99.90
21508;DHT22;10915;54.352;9.074;2023-02-10T10:31:17;7.30;99.90
21508;DHT22;10915;54.352;9.074;2023-02-10T10:33:52;7.30;99.90
21508;DHT22;10915;54.352;9.074;2023-02-10T10:36:37;7.40;99.90
21508;DHT22;10915;54.352;9.074;2023-02-10T10:39:38;7.40;99.90
21508;DHT22;10915;54.352;9.074;2023-02-10T10:44:49;7.30;99.90
21508;DHT22;10915;54.352;9.074;2023-02-10T10:47:38;7.30;99.90
21508;DHT22;10915;54.352;9.074;2023-02-10T10:50:05;7.30;99.90
21508;DHT22;10915;54.352;9.074;2023-02-10T10:52:33;7.20;99.90
21508;DHT22;10915;54.352;9.074;2023-02-10T10:55:07;7.20;99.90
21508;DHT22;10915;54.352;9.074;2023-02-10T10:57:35;7.20;99.90
21508;DHT22;10915;54.352;9.074;2023-02-10T11:02:39;7.00;99.90
21508;DHT22;10915;54.352;9.074;2023-02-10T11:05:12;6.90;99.90
21508;DHT22;10915;54.352;9.074;2023-02-10T11:07:39;6.90;99.90
21508;DHT22;10915;54.352;9.074;2023-02-10T11:10:06;6.90;99.90
21508;DHT22;10915;54.352;9.074;2023-02-10T11:12:45;7.00;99.90
21508;DHT22;10915;54.352;9.074;2023-02-10T11:17:57;7.10;99.90
21508;DHT22;10915;54.352;9.074;2023-02-10T11:20:25;7.10;99.90
21508;DHT22;10915;54.352;9.074;2023-02-10T11:22:58;7.00;99.90
21508;DHT22;10915;54.352;9.074;2023-02-10T11:27:54;7.00;99.90
21508;DHT22;10915;54.352;9.074;2023-02-10T11:32:50;7.00;99.90
21508;DHT22;10915;54.352;9.074;2023-02-10T11:35:16;7.00;99.90
21508;DHT22;10915;54.352;9.074;2023-02-10T11:37:43;7.00;99.90
21508;DHT22;10915;54.352;9.074;2023-02-10T11:40:23;7.00;99.90
21508;DHT22;10915;54.352;9.074;2023-02-10T11:42:51;7.00;99.90
21508;DHT22;10915;54.352;9.074;2023-02-10T11:45:21;6.90;99.90
21508;DHT22;10915;54.352;9.074;2023-02-10T11:48:17;6.90;99.90
21508;DHT22;10915;54.352;9.074;2023-02-10T11:50:43;6.90;99.90
21508;DHT22;10915;54.352;9.074;2023-02-10T11:53:25;6.80;99.90
21508;DHT22;10915;54.352;9.074;2023-02-10T12:04:13;6.80;99.90
21508;DHT22;10915;54.352;9.074;2023-02-10T12:15:38;6.90;99.90
21508;DHT22;10915;54.352;9.074;2023-02-10T12:26:11;6.90;99.90
21508;DHT22;10915;54.352;9.074;2023-02-10T12:31:31;6.90;99.90
21508;DHT22;10915;54.352;9.074;2023-02-10T12:36:31;6.90;99.90
21508;DHT22;10915;54.352;9.074;2023-02-10T12:39:14;6.90;99.90
21508;DHT22;10915;54.352;9.074;2023-02-10T12:58:14;7.20;99.90
21508;DHT22;10915;54.352;9.074;2023-02-10T13:00:57;7.20;99.90
21508;DHT22;10915;54.352;9.074;2023-02-10T13:03:32;7.20;99.90
21508;DHT22;10915;54.352;9.074;2023-02-10T13:11:42;7.40;99.90
21508;DHT22;10915;54.352;9.074;2023-02-10T13:14:22;7.30;99.90
21508;DHT22;10915;54.352;9.074;2023-02-10T13:16:55;7.30;99.90
21508;DHT22;10915;54.352;9.074;2023-02-10T13:22:34;7.20;99.90
21508;DHT22;10915;54.352;9.074;2023-02-10T13:33:09;7.00;99.90
21508;DHT22;10915;54.352;9.074;2023-02-10T13:35:37;7.00;99.90
21508;DHT22;10915;54.352;9.074;2023-02-10T13:38:09;7.00;99.90
21508;DHT22;10915;54.352;9.074;2023-02-10T13:40:53;7.00;99.90
21508;DHT22;10915;54.352;9.074;2023-02-10T13:43:39;7.00;99.90
21508;DHT22;10915;54.352;9.074;2023-02-10T13:46:05;7.00;99.90
21508;DHT22;10915;54.352;9.074;2023-02-10T13:48:34;7.00;99.90
21508;DHT22;10915;54.352;9.074;2023-02-10T13:51:04;7.00;99.90
21508;DHT22;10915;54.352;9.074;2023-02-10T13:59:05;6.90;99.90
21508;DHT22;10915;54.352;9.074;2023-02-10T14:02:10;6.80;99.90
21508;DHT22;10915;54.352;9.074;2023-02-10T14:04:46;6.80;99.90
21508;DHT22;10915;54.352;9.074;2023-02-10T14:07:35;6.70;99.90
21508;DHT22;10915;54.352;9.074;2023-02-10T14:13:03;6.70;99.90
21508;DHT22;10915;54.352;9.074;2023-02-10T14:15:32;6.80;99.90
21508;DHT22;10915;54.352;9.074;2023-02-10T14:18:22;6.70;99.90
21508;DHT22;10915;54.352;9.074;2023-02-10T14:23:29;6.60;99.90
21508;DHT22;10915;54.352;9.074;2023-02-10T14:26:18;6.60;99.90
21508;DHT22;10915;54.352;9.074;2023-02-10T14:28:49;6.60;99.90
21508;DHT22;10915;54.352;9.074;2023-02-10T14:31:26;6.60;99.90
21508;DHT22;10915;54.352;9.074;2023-02-10T14:33:54;6.60;99.90
21508;DHT22;10915;54.352;9.074;2023-02-10T14:36:20;6.60;99.90
21508;DHT22;10915;54.352;9.074;2023-02-10T14:38:55;6.60;99.90
21508;DHT22;10915;54.352;9.074;2023-02-10T14:41:26;6.60;99.90
21508;DHT22;10915;54.352;9.074;2023-02-10T14:43:53;6.60;99.90
21508;DHT22;10915;54.352;9.074;2023-02-10T14:46:25;6.60;99.90
21508;DHT22;10915;54.352;9.074;2023-02-10T14:49:13;6.60;99.90
21508;DHT22;10915;54.352;9.074;2023-02-10T14:51:43;6.60;99.90
21508;DHT22;10915;54.352;9.074;2023-02-10T14:54:19;6.70;99.90
21508;DHT22;10915;54.352;9.074;2023-02-10T14:57:02;6.60;99.90
21508;DHT22;10915;54.352;9.074;2023-02-10T14:59:31;6.60;99.90
21508;DHT22;10915;54.352;9.074;2023-02-10T15:02:05;6.50;99.90
21508;DHT22;10915;54.352;9.074;2023-02-10T15:04:36;6.50;99.90
21508;DHT22;10915;54.352;9.074;2023-02-10T15:07:03;6.50;99.90
21508;DHT22;10915;54.352;9.074;2023-02-10T15:09:34;6.50;99.90
21508;DHT22;10915;54.352;9.074;2023-02-10T15:12:05;6.50;99.90
21508;DHT22;10915;54.352;9.074;2023-02-10T15:15:02;6.50;99.90
21508;DHT22;10915;54.352;9.074;2023-02-10T15:20:20;6.50;99.90
21508;DHT22;10915;54.352;9.074;2023-02-10T15:22:51;6.40;99.90
21508;DHT22;10915;54.352;9.074;2023-02-10T15:31:01;6.40;99.90
21508;DHT22;10915;54.352;9.074;2023-02-10T15:33:31;6.50;99.90
21508;DHT22;10915;54.352;9.074;2023-02-10T15:44:58;6.40;99.90
21508;DHT22;10915;54.352;9.074;2023-02-10T15:46:52;6.40;99.90
21508;DHT22;10915;54.352;9.074;2023-02-10T15:49:20;6.40;99.90
21508;DHT22;10915;54.352;9.074;2023-02-10T15:51:49;6.40;99.90
21508;DHT22;10915;54.352;9.074;2023-02-10T15:54:19;6.40;99.90
21508;DHT22;10915;54.352;9.074;2023-02-10T15:57:00;6.30;99.90
21508;DHT22;10915;54.352;9.074;2023-02-10T15:59:27;6.30;99.90
21508;DHT22;10915;54.352;9.074;2023-02-10T16:01:57;6.30;99.90
21508;DHT22;10915;54.352;9.074;2023-02-10T16:04:24;6.20;99.90
21508;DHT22;10915;54.352;9.074;2023-02-10T16:06:50;6.20;99.90
21508;DHT22;10915;54.352;9.074;2023-02-10T16:09:16;6.20;99.90
21508;DHT22;10915;54.352;9.074;2023-02-10T16:11:42;6.20;99.90
21508;DHT22;10915;54.352;9.074;2023-02-10T16:14:08;6.10;99.90
21508;DHT22;10915;54.352;9.074;2023-02-10T16:16:37;6.20;99.90
21508;DHT22;10915;54.352;9.074;2023-02-10T16:19:04;6.10;99.90
21508;DHT22;10915;54.352;9.074;2023-02-10T16:21:31;6.10;99.90
21508;DHT22;10915;54.352;9.074;2023-02-10T16:23:56;6.10;99.90
21508;DHT22;10915;54.352;9.074;2023-02-10T16:26:23;6.10;99.90
21508;DHT22;10915;54.352;9.074;2023-02-10T16:28:50;6.10;99.90
21508;DHT22;10915;54.352;9.074;2023-02-10T16:31:16;6.10;99.90
21508;DHT22;10915;54.352;9.074;2023-02-10T16:33:45;6.10;99.90
21508;DHT22;10915;54.352;9.074;2023-02-10T16:36:14;6.10;99.90
21508;DHT22;10915;54.352;9.074;2023-02-10T16:38:41;6.00;99.90
21508;DHT22;10915;54.352;9.074;2023-02-10T16:41:07;6.00;99.90
21508;DHT22;10915;54.352;9.074;2023-02-10T16:43:33;6.00;99.90
21508;DHT22;10915;54.352;9.074;2023-02-10T16:45:59;5.90;99.90
21508;DHT22;10915;54.352;9.074;2023-02-10T16:48:24;5.80;99.90
21508;DHT22;10915;54.352;9.074;2023-02-10T16:50:50;5.90;99.90
21508;DHT22;10915;54.352;9.074;2023-02-10T16:53:16;5.80;99.90
21508;DHT22;10915;54.352;9.074;2023-02-10T16:55:42;5.80;99.90
21508;DHT22;10915;54.352;9.074;2023-02-10T16:58:14;5.80;99.90
21508;DHT22;10915;54.352;9.074;2023-02-10T17:00:41;5.80;99.90
21508;DHT22;10915;54.352;9.074;2023-02-10T17:03:07;5.80;99.90
21508;DHT22;10915;54.352;9.074;2023-02-10T17:05:33;5.80;99.90
21508;DHT22;10915;54.352;9.074;2023-02-10T17:07:59;5.80;99.90
21508;DHT22;10915;54.352;9.074;2023-02-10T17:10:27;5.80;99.90
21508;DHT22;10915;54.352;9.074;2023-02-10T17:12:53;5.80;99.90
21508;DHT22;10915;54.352;9.074;2023-02-10T17:15:20;5.80;99.90
21508;DHT22;10915;54.352;9.074;2023-02-10T17:17:46;5.80;99.90
21508;DHT22;10915;54.352;9.074;2023-02-10T17:20:32;5.80;99.90
21508;DHT22;10915;54.352;9.074;2023-02-10T17:22:59;5.80;99.90
21508;DHT22;10915;54.352;9.074;2023-02-10T17:25:28;5.80;99.90
21508;DHT22;10915;54.352;9.074;2023-02-10T17:27:56;5.80;99.90
21508;DHT22;10915;54.352;9.074;2023-02-10T17:30:23;5.80;99.90
21508;DHT22;10915;54.352;9.074;2023-02-10T17:32:49;5.80;99.90
21508;DHT22;10915;54.352;9.074;2023-02-10T17:35:18;5.80;99.90
21508;DHT22;10915;54.352;9.074;2023-02-10T17:37:45;5.90;99.90
21508;DHT22;10915;54.352;9.074;2023-02-10T17:40:14;5.90;99.90
21508;DHT22;10915;54.352;9.074;2023-02-10T17:42:51;5.90;99.90
21508;DHT22;10915;54.352;9.074;2023-02-10T17:45:17;5.90;99.90
21508;DHT22;10915;54.352;9.074;2023-02-10T17:47:44;5.90;99.90
21508;DHT22;10915;54.352;9.074;2023-02-10T17:50:11;5.90;99.90
21508;DHT22;10915;54.352;9.074;2023-02-10T17:52:37;5.90;99.90
21508;DHT22;10915;54.352;9.074;2023-02-10T17:55:04;5.90;99.90
21508;DHT22;10915;54.352;9.074;2023-02-10T17:57:30;5.90;99.90
21508;DHT22;10915;54.352;9.074;2023-02-10T17:59:55;5.90;99.90
21508;DHT22;10915;54.352;9.074;2023-02-10T18:02:21;5.90;99.90
21508;DHT22;10915;54.352;9.074;2023-02-10T18:04:47;5.90;99.90
21508;DHT22;10915;54.352;9.074;2023-02-10T18:07:18;5.90;99.90
21508;DHT22;10915;54.352;9.074;2023-02-10T18:09:44;5.80;99.90
21508;DHT22;10915;54.352;9.074;2023-02-10T18:12:10;5.90;99.90
21508;DHT22;10915;54.352;9.074;2023-02-10T18:14:38;5.90;99.90
21508;DHT22;10915;54.352;9.074;2023-02-10T18:17:04;5.90;99.90
21508;DHT22;10915;54.352;9.074;2023-02-10T18:19:30;5.80;99.90
21508;DHT22;10915;54.352;9.074;2023-02-10T18:21:56;5.90;99.90
21508;DHT22;10915;54.352;9.074;2023-02-10T18:24:22;5.80;99.90
21508;DHT22;10915;54.352;9.074;2023-02-10T18:26:48;5.90;99.90
21508;DHT22;10915;54.352;9.074;2023-02-10T18:29:14;5.90;99.90
21508;DHT22;10915;54.352;9.074;2023-02-10T18:31:40;5.90;99.90
21508;DHT22;10915;54.352;9.074;2023-02-10T18:34:06;5.80;99.90
21508;DHT22;10915;54.352;9.074;2023-02-10T18:36:32;5.90;99.90
21508;DHT22;10915;54.352;9.074;2023-02-10T18:38:59;5.90;99.90
21508;DHT22;10915;54.352;9.074;2023-02-10T18:41:25;5.90;99.90